createdAt,value
2019-01-24T00:00:31.046Z,170.13
2019-01-24T00:03:00.541Z,171.03
2019-01-24T00:05:30.167Z,175.20
2019-01-24T00:07:59.573Z,181.70
2019-01-24T00:10:28.933Z,170.27
2019-01-24T00:12:58.396Z,165.07
2019-01-24T00:15:27.890Z,175.13
2019-01-24T00:17:57.532Z,166.00
2019-01-24T00:20:26.986Z,156.87
2019-01-24T00:22:56.378Z,164.83
2019-01-24T00:25:26.140Z,167.73
2019-01-24T00:27:55.603Z,160.03
2019-01-24T00:30:25.272Z,150.30
2019-01-24T00:32:54.738Z,154.00
2019-01-24T00:35:24.196Z,163.30
2019-01-24T00:37:54.012Z,154.97
2019-01-24T00:40:23.482Z,159.30
2019-01-24T00:42:52.963Z,151.30
2019-01-24T00:45:22.574Z,160.17
2019-01-24T00:47:52.043Z,144.20
2019-01-24T00:50:22.303Z,139.43
2019-01-24T00:52:52.164Z,148.40
2019-01-24T00:55:21.519Z,142.93
2019-01-24T00:57:50.885Z,148.70
2019-01-24T01:00:23.923Z,138.83
2019-01-24T01:02:53.376Z,145.50
2019-01-24T01:05:22.740Z,139.33
2019-01-24T01:07:52.228Z,137.77
2019-01-24T01:10:22.260Z,145.93
2019-01-24T01:12:51.727Z,147.10
2019-01-24T01:15:21.916Z,136.37
2019-01-24T01:17:51.377Z,129.57
2019-01-24T01:20:22.498Z,123.13
2019-01-24T01:22:55.077Z,126.40
2019-01-24T01:25:24.432Z,128.57
2019-01-24T01:27:53.888Z,124.90
2019-01-24T01:30:25.035Z,115.87
2019-01-24T01:32:54.613Z,119.47
2019-01-24T01:35:24.176Z,124.30
2019-01-24T01:37:53.961Z,113.23
2019-01-24T01:40:23.421Z,115.77
2019-01-24T01:42:52.782Z,110.67
2019-01-24T01:45:22.976Z,116.30
2019-01-24T01:47:52.340Z,111.80
2019-01-24T01:50:23.406Z,112.27
2019-01-24T01:52:54.056Z,110.70
2019-01-24T01:55:23.419Z,117.90
2019-01-24T01:57:53.598Z,100.77
2019-01-24T02:00:25.457Z,103.93
2019-01-24T02:02:54.925Z,89.30
2019-01-24T02:05:24.368Z,92.60
2019-01-24T02:07:54.252Z,91.83
2019-01-24T02:10:24.714Z,93.00
2019-01-24T02:12:54.187Z,85.40
2019-01-24T02:15:23.665Z,87.50
2019-01-24T02:17:53.126Z,86.70
2019-01-24T02:20:24.184Z,88.03
2019-01-24T02:22:54.127Z,90.20
2019-01-24T02:25:23.681Z,90.83
2019-01-24T02:27:53.145Z,87.50
2019-01-24T02:30:27.963Z,92.60
2019-01-24T02:32:57.312Z,84.47
2019-01-24T02:35:26.776Z,90.70
2019-01-24T02:37:56.205Z,93.80
2019-01-24T02:40:25.958Z,87.23
2019-01-24T02:42:55.331Z,85.27
2019-01-24T02:45:25.809Z,81.57
2019-01-24T02:47:55.166Z,87.07
2019-01-24T02:50:24.820Z,90.60
2019-01-24T02:52:54.218Z,86.13
2019-01-24T02:55:24.389Z,83.90
2019-01-24T02:57:56.790Z,82.10
2019-01-24T03:00:26.559Z,83.77
2019-01-24T03:02:55.912Z,83.60
2019-01-24T03:05:25.368Z,79.50
2019-01-24T03:07:55.069Z,86.17
2019-01-24T03:10:24.571Z,81.57
2019-01-24T03:12:54.063Z,87.30
2019-01-24T03:15:23.800Z,82.47
2019-01-24T03:17:53.281Z,84.27
2019-01-24T03:20:22.694Z,84.77
2019-01-24T03:22:52.479Z,85.10
2019-01-24T03:25:21.865Z,86.70
2019-01-24T03:27:51.349Z,87.90
2019-01-24T03:30:22.773Z,79.00
2019-01-24T03:32:52.236Z,80.00
2019-01-24T03:35:24.238Z,75.90
2019-01-24T03:37:53.621Z,77.33
2019-01-24T03:40:23.250Z,77.30
2019-01-24T03:42:52.703Z,72.43
2019-01-24T03:45:22.381Z,80.17
2019-01-24T03:47:51.730Z,79.50
2019-01-24T03:50:21.978Z,77.27
2019-01-24T03:52:51.751Z,78.27
2019-01-24T03:55:22.115Z,74.77
2019-01-24T03:57:58.978Z,71.57
2019-01-24T04:00:28.263Z,68.87
2019-01-24T04:03:01.398Z,80.67
2019-01-24T04:05:30.814Z,73.67
2019-01-24T04:07:59.962Z,75.07
2019-01-24T04:10:29.476Z,69.17
2019-01-24T04:12:58.573Z,72.03
2019-01-24T04:15:27.966Z,69.03
2019-01-24T04:17:57.223Z,65.53
2019-01-24T04:20:26.556Z,67.17
2019-01-24T04:22:55.806Z,63.37
2019-01-24T04:25:25.438Z,65.83
2019-01-24T04:27:54.686Z,70.13
2019-01-24T04:30:24.034Z,60.47
2019-01-24T04:32:53.511Z,65.73
2019-01-24T04:35:23.268Z,65.47
2019-01-24T04:37:52.632Z,61.80
2019-01-24T04:40:22.424Z,67.67
2019-01-24T04:42:51.986Z,64.77
2019-01-24T04:45:21.434Z,61.97
2019-01-24T04:47:50.907Z,63.43
2019-01-24T04:50:20.434Z,59.87
2019-01-24T04:52:49.822Z,60.53
2019-01-24T04:55:19.848Z,66.20
2019-01-24T04:57:49.532Z,61.80
2019-01-24T05:00:21.185Z,62.90
2019-01-24T05:02:50.685Z,64.60
2019-01-24T05:05:27.206Z,64.07
2019-01-24T05:07:51.297Z,58.73
2019-01-24T05:10:20.682Z,63.30
2019-01-24T05:12:50.250Z,68.40
2019-01-24T05:15:19.858Z,59.43
2019-01-24T05:17:49.314Z,63.93
2019-01-24T05:20:18.745Z,57.50
2019-01-24T05:22:48.702Z,60.03
2019-01-24T05:25:18.478Z,61.93
2019-01-24T05:27:47.977Z,59.97
2019-01-24T05:30:25.676Z,57.90
2019-01-24T05:32:55.450Z,55.40
2019-01-24T05:35:24.939Z,62.30
2019-01-24T05:37:55.017Z,55.10
2019-01-24T05:40:24.405Z,59.67
2019-01-24T05:42:53.872Z,58.23
2019-01-24T05:45:23.602Z,61.93
2019-01-24T05:47:53.273Z,56.13
2019-01-24T05:50:22.694Z,81.13
2019-01-24T05:52:51.997Z,58.47
2019-01-24T05:55:21.709Z,54.77
2019-01-24T05:57:51.572Z,56.73
2019-01-24T06:00:23.084Z,50.07
2019-01-24T06:02:52.488Z,53.60
2019-01-24T06:05:21.979Z,59.07
2019-01-24T06:07:51.520Z,55.40
2019-01-24T06:10:21.076Z,51.60
2019-01-24T06:12:50.569Z,51.70
2019-01-24T06:15:19.926Z,46.93
2019-01-24T06:17:49.441Z,47.43
2019-01-24T06:20:18.804Z,50.83
2019-01-24T06:22:48.345Z,52.00
2019-01-24T06:25:17.745Z,49.20
2019-01-24T06:27:47.211Z,61.23
2019-01-24T06:30:23.736Z,52.03
2019-01-24T06:32:53.187Z,43.63
2019-01-24T06:35:22.645Z,48.83
2019-01-24T06:37:52.042Z,48.07
2019-01-24T06:40:21.509Z,54.93
2019-01-24T06:42:51.013Z,47.20
2019-01-24T06:45:22.613Z,52.47
2019-01-24T06:47:52.331Z,47.23
2019-01-24T06:50:21.786Z,49.43
2019-01-24T06:52:51.293Z,50.80
2019-01-24T06:55:23.832Z,52.50
2019-01-24T06:58:06.713Z,51.53
2019-01-24T07:03:42.444Z,51.97
2019-01-24T07:06:12.524Z,48.50
2019-01-24T07:08:44.761Z,53.17
2019-01-24T07:11:14.817Z,50.47
2019-01-24T07:13:44.858Z,54.40
2019-01-24T07:16:15.780Z,52.63
2019-01-24T07:18:46.658Z,54.03
2019-01-24T07:21:16.226Z,58.33
2019-01-24T07:23:46.129Z,58.07
2019-01-24T07:26:16.006Z,57.90
2019-01-24T07:28:47.163Z,59.97
2019-01-24T07:31:17.013Z,60.60
2019-01-24T07:33:46.514Z,57.20
2019-01-24T07:36:16.173Z,62.77
2019-01-24T07:38:46.019Z,60.40
2019-01-24T07:41:15.493Z,60.17
2019-01-24T07:43:45.399Z,65.13
2019-01-24T07:46:15.717Z,59.63
2019-01-24T07:48:45.938Z,60.93
2019-01-24T07:51:19.406Z,61.67
2019-01-24T07:53:49.353Z,64.37
2019-01-24T07:56:19.665Z,68.43
2019-01-24T07:58:49.222Z,60.90
2019-01-24T08:01:20.106Z,63.43
2019-01-24T08:03:49.589Z,64.13
2019-01-24T08:06:19.154Z,66.60
2019-01-24T08:08:49.953Z,66.33
2019-01-24T08:11:19.449Z,59.43
2019-01-24T08:13:52.048Z,63.50
2019-01-24T08:16:22.060Z,65.70
2019-01-24T08:18:51.814Z,61.07
2019-01-24T08:21:21.293Z,70.07
2019-01-24T08:23:50.885Z,70.87
2019-01-24T08:26:20.268Z,62.13
2019-01-24T08:28:50.204Z,59.97
2019-01-24T08:31:20.268Z,62.87
2019-01-24T08:33:50.930Z,64.77
2019-01-24T08:36:20.901Z,66.07
2019-01-24T08:38:50.592Z,62.73
2019-01-24T08:41:19.946Z,64.20
2019-01-24T08:43:49.324Z,64.90
2019-01-24T08:46:18.794Z,63.43
2019-01-24T08:48:48.501Z,63.67
2019-01-24T08:51:18.277Z,66.47
2019-01-24T08:53:47.636Z,63.47
2019-01-24T08:56:17.118Z,69.00
2019-01-24T08:58:46.577Z,63.27
2019-01-24T09:01:16.078Z,60.63
2019-01-24T09:03:45.526Z,59.90
2019-01-24T09:06:14.885Z,63.00
2019-01-24T09:08:44.805Z,60.13
2019-01-24T09:11:14.993Z,57.23
2019-01-24T09:13:44.454Z,64.03
2019-01-24T09:16:13.806Z,60.00
2019-01-24T09:18:43.417Z,59.33
2019-01-24T09:21:16.168Z,60.50
2019-01-24T09:23:45.634Z,56.93
2019-01-24T09:26:15.365Z,61.53
2019-01-24T09:28:44.824Z,56.50
2019-01-24T09:31:14.177Z,57.43
2019-01-24T09:33:43.985Z,60.47
2019-01-24T09:36:13.453Z,60.67
2019-01-24T09:38:42.900Z,59.30
2019-01-24T09:41:12.430Z,65.60
2019-01-24T09:43:42.235Z,56.10
2019-01-24T09:46:11.745Z,62.10
2019-01-24T09:48:41.234Z,60.70
2019-01-24T09:51:10.960Z,58.70
2019-01-24T09:53:40.308Z,56.33
2019-01-24T09:56:09.689Z,56.73
2019-01-24T09:58:39.129Z,55.07
2019-01-24T10:01:08.550Z,56.93
2019-01-24T10:03:38.342Z,50.73
2019-01-24T10:06:07.792Z,54.57
2019-01-24T10:08:37.259Z,51.83
2019-01-24T10:11:06.638Z,49.07
2019-01-24T10:13:35.993Z,51.53
2019-01-24T10:16:05.736Z,53.17
2019-01-24T10:18:35.234Z,59.90
2019-01-24T10:21:04.635Z,52.60
2019-01-24T10:23:33.959Z,52.57
2019-01-24T10:26:03.460Z,51.37
2019-01-24T10:28:33.076Z,55.17
2019-01-24T10:31:02.570Z,55.13
2019-01-24T10:33:32.088Z,51.97
2019-01-24T10:36:01.893Z,57.13
2019-01-24T10:38:31.597Z,57.20
2019-01-24T10:41:00.999Z,58.00
2019-01-24T10:43:30.768Z,55.20
2019-01-24T10:46:00.126Z,56.17
2019-01-24T10:51:05.929Z,56.37
2019-01-24T10:53:35.385Z,57.13
2019-01-24T10:56:05.341Z,55.07
2019-01-24T10:58:34.841Z,53.30
2019-01-24T11:01:04.637Z,54.73
2019-01-24T11:03:34.495Z,52.80
2019-01-24T11:06:03.898Z,54.27
2019-01-24T11:08:33.337Z,56.23
2019-01-24T11:11:02.889Z,56.77
2019-01-24T11:13:32.274Z,58.80
2019-01-24T11:16:01.759Z,54.70
2019-01-24T11:18:31.221Z,57.07
2019-01-24T11:21:00.745Z,52.70
2019-01-24T11:23:30.619Z,56.57
2019-01-24T11:25:59.970Z,55.60
2019-01-24T11:28:29.381Z,63.73
2019-01-24T11:30:59.117Z,59.53
2019-01-24T11:33:28.575Z,60.17
2019-01-24T11:35:58.061Z,58.90
2019-01-24T11:38:27.432Z,61.47
2019-01-24T11:40:56.819Z,61.13
2019-01-24T11:43:26.663Z,63.60
2019-01-24T11:45:56.117Z,63.17
2019-01-24T11:48:25.777Z,60.57
2019-01-24T11:50:55.274Z,59.20
2019-01-24T11:53:24.732Z,57.80
2019-01-24T11:55:54.190Z,58.37
2019-01-24T11:58:23.599Z,58.97
2019-01-24T12:00:54.194Z,57.97
2019-01-24T12:03:23.662Z,54.97
2019-01-24T12:05:53.045Z,53.47
2019-01-24T12:08:22.756Z,55.70
2019-01-24T12:10:52.325Z,59.47
2019-01-24T12:13:22.197Z,53.70
2019-01-24T12:15:51.786Z,57.43
2019-01-24T12:18:21.141Z,59.57
2019-01-24T12:20:50.629Z,59.70
2019-01-24T12:23:20.107Z,54.17
2019-01-24T12:25:49.593Z,54.77
2019-01-24T12:28:19.151Z,60.37
2019-01-24T12:30:48.589Z,59.80
2019-01-24T12:33:18.059Z,76.50
2019-01-24T12:35:47.548Z,61.03
2019-01-24T12:38:16.904Z,60.87
2019-01-24T12:40:46.329Z,59.17
2019-01-24T12:43:22.920Z,52.83
2019-01-24T12:45:52.274Z,64.60
2019-01-24T12:48:21.721Z,53.83
2019-01-24T12:50:51.131Z,53.13
2019-01-24T12:53:20.481Z,57.73
2019-01-24T12:55:50.329Z,56.07
2019-01-24T12:58:19.822Z,54.33
2019-01-24T13:00:49.273Z,57.10
2019-01-24T13:03:18.721Z,57.93
2019-01-24T13:05:48.210Z,54.00
2019-01-24T13:08:17.569Z,56.00
2019-01-24T13:10:46.924Z,60.07
2019-01-24T13:13:16.413Z,53.47
2019-01-24T13:15:46.057Z,54.23
2019-01-24T13:18:15.520Z,60.13
2019-01-24T13:20:45.713Z,53.37
2019-01-24T13:23:15.756Z,54.13
2019-01-24T13:25:46.012Z,57.10
2019-01-24T13:28:15.359Z,56.40
2019-01-24T13:30:45.445Z,57.50
2019-01-24T13:33:15.237Z,54.07
2019-01-24T13:35:44.727Z,59.73
2019-01-24T13:38:14.181Z,54.97
2019-01-24T13:40:43.862Z,57.87
2019-01-24T13:43:13.249Z,53.13
2019-01-24T13:45:43.757Z,56.33
2019-01-24T13:48:13.417Z,56.07
2019-01-24T13:50:42.901Z,53.20
2019-01-24T13:53:12.688Z,51.63
2019-01-24T13:55:42.155Z,55.27
2019-01-24T13:58:11.696Z,52.40
2019-01-24T14:00:41.137Z,58.10
2019-01-24T14:03:18.901Z,58.30
2019-01-24T14:05:48.614Z,58.60
2019-01-24T14:08:18.070Z,54.63
2019-01-24T14:10:47.608Z,61.97
2019-01-24T14:13:16.978Z,62.07
2019-01-24T14:15:46.430Z,62.53
2019-01-24T14:18:15.925Z,60.37
2019-01-24T14:20:45.380Z,58.47
2019-01-24T14:23:15.172Z,60.87
2019-01-24T14:25:44.563Z,61.47
2019-01-24T14:28:14.337Z,65.60
2019-01-24T14:30:43.802Z,59.87
2019-01-24T14:33:13.307Z,59.73
2019-01-24T14:35:43.185Z,57.33
2019-01-24T14:38:12.688Z,56.67
2019-01-24T14:40:42.173Z,68.33
2019-01-24T14:43:11.637Z,54.00
2019-01-24T14:45:41.099Z,58.40
2019-01-24T14:48:10.973Z,74.73
2019-01-24T14:50:40.425Z,72.17
2019-01-24T14:53:09.788Z,65.53
2019-01-24T14:55:39.580Z,75.13
2019-01-24T14:58:09.054Z,65.20
2019-01-24T15:00:41.409Z,60.50
2019-01-24T15:03:11.516Z,64.90
2019-01-24T15:05:40.866Z,61.20
2019-01-24T15:08:10.330Z,60.13
2019-01-24T15:10:39.812Z,49.67
2019-01-24T15:13:09.172Z,57.13
2019-01-24T15:15:38.833Z,61.03
2019-01-24T15:18:08.346Z,57.70
2019-01-24T15:20:37.693Z,55.73
2019-01-24T15:23:07.444Z,57.50
2019-01-24T15:25:36.837Z,67.03
2019-01-24T15:28:06.192Z,56.40
2019-01-24T15:30:35.961Z,55.00
2019-01-24T15:33:05.485Z,55.27
2019-01-24T15:35:34.836Z,52.57
2019-01-24T15:38:11.725Z,51.83
2019-01-24T15:40:41.661Z,54.93
2019-01-24T15:43:11.001Z,58.07
2019-01-24T15:45:40.902Z,52.70
2019-01-24T15:48:10.322Z,53.93
2019-01-24T15:50:39.772Z,51.67
2019-01-24T15:53:09.521Z,52.70
2019-01-24T15:55:39.281Z,58.23
2019-01-24T15:58:09.286Z,52.07
2019-01-24T16:00:41.841Z,49.33
2019-01-24T16:03:14.502Z,55.57
2019-01-24T16:05:46.735Z,53.37
2019-01-24T16:08:16.304Z,54.37
2019-01-24T16:10:45.749Z,56.03
2019-01-24T16:13:15.169Z,53.90
2019-01-24T16:15:44.511Z,54.90
2019-01-24T16:18:14.155Z,53.67
2019-01-24T16:20:43.682Z,53.80
2019-01-24T16:23:13.149Z,57.63
2019-01-24T16:25:42.709Z,53.53
2019-01-24T16:28:13.153Z,54.60
2019-01-24T16:30:42.757Z,55.83
2019-01-24T16:33:12.167Z,51.53
2019-01-24T16:35:42.191Z,54.47
2019-01-24T16:38:11.516Z,52.83
2019-01-24T16:40:40.970Z,55.93
2019-01-24T16:43:11.791Z,55.53
2019-01-24T16:45:41.190Z,57.67
2019-01-24T16:48:11.480Z,55.63
2019-01-24T16:50:42.114Z,57.03
2019-01-24T16:53:11.579Z,55.53
2019-01-24T16:55:41.032Z,54.17
2019-01-24T16:58:10.862Z,51.83
2019-01-24T17:00:45.841Z,57.10
2019-01-24T17:03:16.945Z,55.93
2019-01-24T17:05:46.634Z,58.17
2019-01-24T17:08:16.873Z,55.87
2019-01-24T17:10:46.833Z,56.90
2019-01-24T17:13:16.662Z,54.60
2019-01-24T17:15:46.117Z,55.17
2019-01-24T17:18:15.569Z,55.57
2019-01-24T17:20:45.083Z,58.73
2019-01-24T17:23:14.661Z,56.63
2019-01-24T17:25:44.608Z,52.70
2019-01-24T17:28:14.092Z,51.73
2019-01-24T17:30:45.073Z,55.17
2019-01-24T17:33:15.919Z,51.73
2019-01-24T17:38:56.360Z,53.97
2019-01-24T17:42:16.176Z,51.23
2019-01-24T17:44:46.169Z,55.43
2019-01-24T17:47:16.906Z,52.03
2019-01-24T17:49:46.907Z,49.93
2019-01-24T17:52:16.449Z,52.80
2019-01-24T17:54:45.989Z,52.93
2019-01-24T17:57:15.467Z,56.43
2019-01-24T17:59:44.998Z,51.20
2019-01-24T18:02:14.469Z,51.67
2019-01-24T18:04:44.198Z,53.83
2019-01-24T18:07:24.984Z,54.67
2019-01-24T18:10:01.025Z,54.70
2019-01-24T18:12:39.395Z,56.53
2019-01-24T18:15:16.927Z,56.77
2019-01-24T18:17:50.950Z,54.30
2019-01-24T18:20:22.637Z,54.73
2019-01-24T18:22:52.140Z,58.57
2019-01-24T18:25:23.376Z,55.27
2019-01-24T18:27:54.086Z,51.77
2019-01-24T18:30:28.417Z,52.40
2019-01-24T18:32:58.901Z,51.50
2019-01-24T18:35:28.745Z,58.27
2019-01-24T18:37:58.574Z,55.40
2019-01-24T18:40:31.206Z,53.73
2019-01-24T18:43:00.900Z,67.17
2019-01-24T18:45:38.873Z,56.40
2019-01-24T18:48:09.118Z,55.80
2019-01-24T18:50:38.596Z,49.73
2019-01-24T18:53:08.073Z,48.43
2019-01-24T18:55:37.545Z,47.60
2019-01-24T18:58:07.443Z,52.47
2019-01-24T19:00:38.808Z,46.60
2019-01-24T19:03:08.881Z,44.13
2019-01-24T19:05:38.946Z,53.77
2019-01-24T19:08:08.720Z,53.23
2019-01-24T19:10:39.005Z,51.57
2019-01-24T19:13:08.546Z,51.70
2019-01-24T19:15:39.057Z,50.67
2019-01-24T19:18:09.251Z,48.87
2019-01-24T19:20:40.030Z,50.20
2019-01-24T19:23:09.485Z,53.70
2019-01-24T19:25:39.473Z,52.13
2019-01-24T19:28:10.358Z,53.00
2019-01-24T19:30:39.948Z,54.30
2019-01-24T19:33:10.029Z,49.87
2019-01-24T19:35:40.199Z,52.20
2019-01-24T19:38:10.426Z,48.87
2019-01-24T19:40:40.251Z,49.97
2019-01-24T19:43:11.092Z,51.97
2019-01-24T19:45:40.838Z,61.80
2019-01-24T19:48:10.201Z,51.23
2019-01-24T19:50:39.645Z,52.10
2019-01-24T19:53:10.218Z,50.80
2019-01-24T19:55:39.765Z,56.60
2019-01-24T19:58:09.423Z,51.80
2019-01-24T20:00:39.177Z,58.90
2019-01-24T20:03:09.276Z,57.57
2019-01-24T20:05:38.897Z,53.83
2019-01-24T20:08:08.306Z,53.30
2019-01-24T20:10:37.776Z,51.70
2019-01-24T20:13:07.240Z,55.10
2019-01-24T20:15:36.730Z,62.43
2019-01-24T20:18:06.680Z,56.03
2019-01-24T20:20:37.604Z,55.23
2019-01-24T20:23:07.214Z,51.43
2019-01-24T20:25:36.765Z,79.83
2019-01-24T20:28:06.666Z,62.83
2019-01-24T20:30:36.378Z,59.70
2019-01-24T20:33:06.345Z,54.80
2019-01-24T20:35:44.528Z,60.60
2019-01-24T20:38:14.010Z,53.03
2019-01-24T20:40:43.449Z,57.17
2019-01-24T20:43:13.880Z,61.03
2019-01-24T20:45:43.252Z,58.47
2019-01-24T20:48:12.727Z,62.30
2019-01-24T20:50:42.716Z,56.40
2019-01-24T20:53:12.188Z,70.33
2019-01-24T20:55:41.658Z,74.37
2019-01-24T20:58:11.379Z,67.10
2019-01-24T21:00:41.005Z,75.73
2019-01-24T21:03:11.914Z,64.37
2019-01-24T21:05:41.880Z,74.73
2019-01-24T21:08:11.353Z,68.50
2019-01-24T21:10:40.732Z,62.93
2019-01-24T21:13:11.292Z,70.53
2019-01-24T21:15:40.766Z,63.43
2019-01-24T21:18:10.135Z,55.50
2019-01-24T21:20:39.544Z,58.27
2019-01-24T21:23:09.011Z,51.43
2019-01-24T21:25:38.416Z,55.30
2019-01-24T21:28:08.576Z,57.27
2019-01-24T21:30:38.643Z,54.77
2019-01-24T21:33:08.515Z,55.83
2019-01-24T21:35:38.012Z,57.20
2019-01-24T21:38:07.894Z,58.40
2019-01-24T21:40:37.635Z,54.97
2019-01-24T21:43:07.256Z,54.17
2019-01-24T21:45:38.120Z,53.60
2019-01-24T21:48:10.749Z,55.30
2019-01-24T21:50:40.650Z,50.57
2019-01-24T21:53:10.020Z,54.93
2019-01-24T21:55:39.510Z,52.70
2019-01-24T21:58:09.453Z,59.30
2019-01-24T22:00:39.032Z,55.30
2019-01-24T22:03:09.309Z,52.63
2019-01-24T22:05:39.169Z,55.37
2019-01-24T22:08:09.465Z,50.60
2019-01-24T22:10:39.500Z,57.30
2019-01-24T22:13:10.480Z,52.03
2019-01-24T22:15:40.166Z,52.07
2019-01-24T22:18:10.063Z,59.37
2019-01-24T22:20:40.084Z,54.93
2019-01-24T22:23:10.095Z,55.90
2019-01-24T22:25:39.455Z,52.87
2019-01-24T22:28:09.405Z,54.73
2019-01-24T22:30:44.216Z,48.73
2019-01-24T22:33:14.429Z,53.37
2019-01-24T22:35:43.972Z,54.57
2019-01-24T22:38:13.776Z,54.13
2019-01-24T22:40:43.271Z,50.00
2019-01-24T22:43:13.935Z,50.53
2019-01-24T22:45:43.718Z,56.27
2019-01-24T22:48:13.211Z,53.43
2019-01-24T22:50:43.013Z,54.93
2019-01-24T22:53:12.660Z,53.50
2019-01-24T22:55:42.804Z,51.07
2019-01-24T22:58:12.811Z,56.23
2019-01-24T23:00:55.109Z,53.07
2019-01-24T23:03:45.349Z,56.33
2019-01-24T23:06:15.316Z,55.43
2019-01-24T23:08:44.790Z,47.73
2019-01-24T23:11:14.592Z,53.43
2019-01-24T23:13:44.917Z,53.10
2019-01-24T23:16:14.728Z,55.10
2019-01-24T23:18:44.639Z,53.43
2019-01-24T23:21:14.714Z,53.70
2019-01-24T23:23:44.275Z,52.37
2019-01-24T23:26:14.107Z,50.73
2019-01-24T23:28:44.255Z,54.60
2019-01-24T23:31:13.816Z,57.73
2019-01-24T23:33:43.411Z,58.00
2019-01-24T23:36:13.360Z,53.17
2019-01-24T23:38:43.787Z,57.73
2019-01-24T23:41:13.556Z,56.53
2019-01-24T23:43:43.200Z,55.90
2019-01-24T23:46:13.731Z,59.07
2019-01-24T23:48:43.483Z,54.07
2019-01-24T23:51:13.657Z,56.07
2019-01-24T23:53:43.348Z,58.53
2019-01-24T23:56:13.284Z,53.93
2019-01-24T23:58:43.312Z,52.40
